sensor_id;sensor_type;location;lat;lon;timestamp;P1;durP1;ratioP1;P2;durP2;ratioP2
2868;SDS011;1442;47.448;8.582;2022-08-21T00:01:21;18.42;;;9.40;;
2868;SDS011;1442;47.448;8.582;2022-08-21T00:03:50;18.88;;;9.73;;
2868;SDS011;1442;47.448;8.582;2022-08-21T00:06:18;18.77;;;11.20;;
2868;SDS011;1442;47.448;8.582;2022-08-21T00:08:45;24.45;;;10.88;;
2868;SDS011;1442;47.448;8.582;2022-08-21T00:11:13;16.50;;;10.85;;
2868;SDS011;1442;47.448;8.582;2022-08-21T00:13:40;48.13;;;12.32;;
2868;SDS011;1442;47.448;8.582;2022-08-21T00:16:07;25.10;;;11.98;;
2868;SDS011;1442;47.448;8.582;2022-08-21T00:18:34;20.13;;;12.45;;
2868;SDS011;1442;47.448;8.582;2022-08-21T00:21:03;19.38;;;11.10;;
2868;SDS011;1442;47.448;8.582;2022-08-21T00:23:32;15.43;;;10.13;;
2868;SDS011;1442;47.448;8.582;2022-08-21T00:25:59;13.95;;;9.63;;
2868;SDS011;1442;47.448;8.582;2022-08-21T00:28:26;11.48;;;8.95;;
2868;SDS011;1442;47.448;8.582;2022-08-21T00:30:53;14.68;;;9.70;;
2868;SDS011;1442;47.448;8.582;2022-08-21T00:33:21;11.38;;;8.05;;
2868;SDS011;1442;47.448;8.582;2022-08-21T00:35:48;13.23;;;7.80;;
2868;SDS011;1442;47.448;8.582;2022-08-21T00:38:18;13.23;;;6.88;;
2868;SDS011;1442;47.448;8.582;2022-08-21T00:40:46;10.10;;;6.65;;
2868;SDS011;1442;47.448;8.582;2022-08-21T00:43:15;12.13;;;6.65;;
2868;SDS011;1442;47.448;8.582;2022-08-21T00:45:42;11.38;;;6.63;;
2868;SDS011;1442;47.448;8.582;2022-08-21T00:48:09;12.70;;;6.95;;
2868;SDS011;1442;47.448;8.582;2022-08-21T00:50:38;9.10;;;6.88;;
2868;SDS011;1442;47.448;8.582;2022-08-21T00:53:07;10.15;;;6.88;;
2868;SDS011;1442;47.448;8.582;2022-08-21T00:55:36;9.50;;;7.15;;
2868;SDS011;1442;47.448;8.582;2022-08-21T00:58:04;14.93;;;7.10;;
2868;SDS011;1442;47.448;8.582;2022-08-21T01:00:34;14.40;;;8.13;;
2868;SDS011;1442;47.448;8.582;2022-08-21T01:03:05;18.10;;;8.02;;
2868;SDS011;1442;47.448;8.582;2022-08-21T01:05:33;11.70;;;7.25;;
2868;SDS011;1442;47.448;8.582;2022-08-21T01:08:00;15.20;;;8.63;;
2868;SDS011;1442;47.448;8.582;2022-08-21T01:10:28;14.25;;;8.50;;
2868;SDS011;1442;47.448;8.582;2022-08-21T01:12:57;14.25;;;9.02;;
2868;SDS011;1442;47.448;8.582;2022-08-21T01:15:26;19.23;;;8.70;;
2868;SDS011;1442;47.448;8.582;2022-08-21T01:17:55;15.68;;;9.60;;
2868;SDS011;1442;47.448;8.582;2022-08-21T01:20:22;14.80;;;9.35;;
2868;SDS011;1442;47.448;8.582;2022-08-21T01:22:51;13.23;;;9.07;;
2868;SDS011;1442;47.448;8.582;2022-08-21T01:25:18;20.50;;;9.20;;
2868;SDS011;1442;47.448;8.582;2022-08-21T01:27:45;18.25;;;8.55;;
2868;SDS011;1442;47.448;8.582;2022-08-21T01:30:14;14.85;;;9.13;;
2868;SDS011;1442;47.448;8.582;2022-08-21T01:32:42;15.18;;;9.40;;
2868;SDS011;1442;47.448;8.582;2022-08-21T01:35:10;13.32;;;8.05;;
2868;SDS011;1442;47.448;8.582;2022-08-21T01:37:37;13.85;;;9.25;;
2868;SDS011;1442;47.448;8.582;2022-08-21T01:40:07;16.80;;;9.27;;
2868;SDS011;1442;47.448;8.582;2022-08-21T01:42:34;12.95;;;8.32;;
2868;SDS011;1442;47.448;8.582;2022-08-21T01:45:01;11.85;;;8.73;;
2868;SDS011;1442;47.448;8.582;2022-08-21T01:47:28;10.70;;;8.65;;
2868;SDS011;1442;47.448;8.582;2022-08-21T01:49:55;13.15;;;9.00;;
2868;SDS011;1442;47.448;8.582;2022-08-21T01:52:23;9.77;;;7.90;;
2868;SDS011;1442;47.448;8.582;2022-08-21T01:54:50;19.30;;;8.60;;
2868;SDS011;1442;47.448;8.582;2022-08-21T01:57:18;14.63;;;7.05;;
2868;SDS011;1442;47.448;8.582;2022-08-21T01:59:45;37.92;;;7.18;;
2868;SDS011;1442;47.448;8.582;2022-08-21T02:02:13;9.25;;;7.68;;
2868;SDS011;1442;47.448;8.582;2022-08-21T02:04:40;37.65;;;8.07;;
2868;SDS011;1442;47.448;8.582;2022-08-21T02:07:07;10.93;;;7.20;;
2868;SDS011;1442;47.448;8.582;2022-08-21T02:09:34;10.63;;;6.68;;
2868;SDS011;1442;47.448;8.582;2022-08-21T02:12:01;7.97;;;6.78;;
2868;SDS011;1442;47.448;8.582;2022-08-21T02:14:30;7.78;;;6.60;;
2868;SDS011;1442;47.448;8.582;2022-08-21T02:16:57;6.93;;;5.93;;
2868;SDS011;1442;47.448;8.582;2022-08-21T02:19:24;7.40;;;6.18;;
